BIENTÔT MET'MAP
version 2.0 !

Prévue avant fin octobre,
la nouvelle version sera
plus belle, plus complète
et hébergée sur un serveur
3 fois plus puissant...
et toujours gratuite !


Pas compatible ?
Essayez la version Mobile !

SE CONNECTER : | S'inscrire | Disclaimer | Découvrir Orbifly |
Code OACI :

TAF - LIRZ San Edigio Perugia - 10 Jul 2020 12:12 UTC
Data Sources :     NOAA   


- Altitude de l'aérodrome : 697 ft
- Code IATA : PEG
- Pas de NOTAMs connus.


LIRZ - San Edigio Perugia

Dernier METAR connu : 2015/08/11 07:50 LIRZ 110750Z 01007KT 310V030 9999 SCT050 SCT060 23/18 Q1012
TAF TAF LIRZ
Valide du 10 à 06h jusqu'au 11 à 06h UTC


100500Z 1006/1106 VRB05KT 9999 SCT030
BECMG 1010/1012 22010KT
BECMG 1016/1018 VRB05KT

Source NOAA


MET'MAP, la Météo Aéronautique d'un coup d'oeil ! - Copyright ORBIFLY Décembre 2007

Développement & Programmation : Alexandra Zaïnal
Co-Développement : Marc-Olivier Méhu
Soutien technique & logistique : Manuel Goepfert
Conception & Financement : Baudouin d'Aumeries